createdAt,value
2023-01-11T00:00:48.613Z,7.00
2023-01-11T00:03:16.282Z,6.80
2023-01-11T00:05:44.221Z,7.10
2023-01-11T00:08:11.738Z,7.00
2023-01-11T00:10:39.074Z,7.00
2023-01-11T00:13:06.673Z,6.90
2023-01-11T00:15:35.261Z,6.90
2023-01-11T00:18:03.056Z,7.00
2023-01-11T00:20:30.102Z,6.90
2023-01-11T00:22:56.999Z,6.80
2023-01-11T00:25:23.963Z,6.80
2023-01-11T00:27:50.741Z,6.80
2023-01-11T00:30:18.650Z,6.80
2023-01-11T00:32:45.980Z,6.90
2023-01-11T00:35:12.852Z,6.80
2023-01-11T00:37:40.171Z,6.80
2023-01-11T00:40:08.195Z,6.70
2023-01-11T00:42:53.443Z,6.80
2023-01-11T00:45:38.818Z,6.70
2023-01-11T00:48:07.056Z,6.70
2023-01-11T00:50:36.174Z,6.70
2023-01-11T00:53:03.618Z,6.80
2023-01-11T00:55:32.035Z,6.70
2023-01-11T00:57:59.504Z,6.70
2023-01-11T01:00:27.251Z,6.80
2023-01-11T01:02:54.479Z,6.60
2023-01-11T01:05:21.567Z,6.70
2023-01-11T01:07:48.521Z,6.60
2023-01-11T01:10:17.266Z,6.60
2023-01-11T01:13:02.569Z,6.60
2023-01-11T01:15:29.430Z,6.70
2023-01-11T01:17:56.904Z,6.70
2023-01-11T01:20:26.125Z,6.60
2023-01-11T01:22:53.316Z,6.50
2023-01-11T01:25:20.082Z,6.60
2023-01-11T01:27:46.871Z,6.50
2023-01-11T01:30:13.995Z,6.70
2023-01-11T01:32:40.765Z,6.60
2023-01-11T01:35:08.131Z,6.60
2023-01-11T01:37:35.032Z,6.50
2023-01-11T01:40:01.845Z,6.40
2023-01-11T01:42:28.843Z,6.40
2023-01-11T01:45:00.154Z,6.70
2023-01-11T01:47:45.091Z,6.40
2023-01-11T01:50:27.231Z,6.40
2023-01-11T01:53:02.229Z,6.60
2023-01-11T01:55:33.588Z,6.40
2023-01-11T01:58:04.205Z,6.50
2023-01-11T02:00:31.431Z,6.50
2023-01-11T02:02:59.838Z,6.40
2023-01-11T02:05:28.232Z,6.50
2023-01-11T02:07:57.478Z,6.30
2023-01-11T02:10:27.928Z,6.30
2023-01-11T02:13:09.080Z,6.50
2023-01-11T02:15:36.919Z,6.30
2023-01-11T02:18:05.229Z,6.30
2023-01-11T02:20:44.895Z,6.20
2023-01-11T02:23:17.445Z,6.40
2023-01-11T02:26:02.299Z,6.40
2023-01-11T02:28:51.338Z,6.20
2023-01-11T02:31:26.925Z,6.00
2023-01-11T02:34:25.675Z,6.10
2023-01-11T02:36:52.347Z,6.10
2023-01-11T02:39:34.210Z,6.20
2023-01-11T02:42:44.309Z,6.10
2023-01-11T02:45:29.218Z,6.10
2023-01-11T02:48:04.942Z,6.00
2023-01-11T02:50:43.953Z,6.10
2023-01-11T02:53:43.171Z,6.00
2023-01-11T02:56:19.819Z,5.90
2023-01-11T02:58:49.572Z,5.90
2023-01-11T03:01:18.934Z,6.00
2023-01-11T03:03:45.790Z,5.90
2023-01-11T03:06:35.833Z,6.00
2023-01-11T03:09:07.985Z,5.80
2023-01-11T03:12:08.864Z,5.90
2023-01-11T03:14:44.849Z,5.80
2023-01-11T03:17:38.007Z,6.00
2023-01-11T03:20:25.765Z,5.70
2023-01-11T03:23:07.621Z,5.80
2023-01-11T03:25:49.652Z,5.80
2023-01-11T03:28:50.406Z,5.80
2023-01-11T03:31:29.135Z,5.90
2023-01-11T03:34:33.910Z,5.70
2023-01-11T03:37:11.648Z,5.80
2023-01-11T03:39:50.160Z,5.80
2023-01-11T03:42:19.508Z,5.80
2023-01-11T03:44:50.391Z,5.70
2023-01-11T03:47:19.759Z,5.80
2023-01-11T03:49:53.182Z,5.70
2023-01-11T03:52:27.686Z,5.70
2023-01-11T03:54:55.946Z,5.60
2023-01-11T03:57:34.839Z,5.50
2023-01-11T04:00:01.980Z,5.70
2023-01-11T04:02:35.365Z,5.70
2023-01-11T04:05:02.827Z,5.70
2023-01-11T04:07:29.800Z,5.60
2023-01-11T04:09:58.542Z,5.80
2023-01-11T04:12:26.066Z,5.70
2023-01-11T04:14:52.939Z,5.60
2023-01-11T04:17:19.856Z,5.70
2023-01-11T04:19:46.842Z,5.70
2023-01-11T04:22:13.656Z,5.60
2023-01-11T04:24:40.415Z,5.60
2023-01-11T04:27:07.213Z,5.70
2023-01-11T04:29:33.982Z,5.60
2023-01-11T04:32:01.504Z,5.60
2023-01-11T04:34:28.201Z,5.40
2023-01-11T04:36:54.950Z,5.70
2023-01-11T04:39:21.760Z,5.60
2023-01-11T04:42:06.900Z,5.60
2023-01-11T04:44:33.700Z,5.70
2023-01-11T04:47:00.457Z,5.50
2023-01-11T04:49:27.220Z,5.40
2023-01-11T04:51:53.934Z,5.30
2023-01-11T04:54:20.742Z,5.40
2023-01-11T04:56:47.516Z,5.50
2023-01-11T04:59:14.460Z,5.50
2023-01-11T05:01:41.433Z,5.50
2023-01-11T05:04:08.336Z,5.50
2023-01-11T05:06:35.176Z,5.50
2023-01-11T05:09:02.168Z,5.60
2023-01-11T05:11:29.023Z,5.40
2023-01-11T05:13:57.310Z,5.50
2023-01-11T05:16:24.999Z,5.50
2023-01-11T05:18:54.437Z,5.40
2023-01-11T05:21:25.222Z,5.50
2023-01-11T05:23:52.665Z,5.30
2023-01-11T05:26:25.405Z,5.40
2023-01-11T05:28:52.894Z,5.50
2023-01-11T05:31:19.939Z,5.30
2023-01-11T05:33:47.224Z,5.20
2023-01-11T05:36:17.725Z,5.20
2023-01-11T05:38:49.229Z,5.50
2023-01-11T05:41:17.522Z,5.20
2023-01-11T05:44:04.478Z,5.40
2023-01-11T05:46:32.290Z,5.30
2023-01-11T05:48:59.264Z,5.20
2023-01-11T05:51:27.394Z,5.20
2023-01-11T05:53:54.227Z,5.30
2023-01-11T05:56:21.026Z,5.20
2023-01-11T05:58:51.188Z,5.30
2023-01-11T06:01:20.191Z,5.30
2023-01-11T06:03:47.316Z,5.20
2023-01-11T06:06:15.257Z,5.30
2023-01-11T06:08:42.240Z,5.20
2023-01-11T06:11:09.029Z,5.40
2023-01-11T06:13:36.133Z,5.20
2023-01-11T06:16:07.026Z,5.40
2023-01-11T06:18:36.571Z,5.30
2023-01-11T06:21:04.331Z,5.30
2023-01-11T06:23:33.129Z,5.30
2023-01-11T06:26:12.397Z,5.30
2023-01-11T06:28:41.499Z,5.50
2023-01-11T06:31:08.692Z,5.20
2023-01-11T06:33:36.156Z,5.20
2023-01-11T06:36:08.951Z,5.40
2023-01-11T06:38:36.840Z,5.30
2023-01-11T06:41:05.977Z,5.30
2023-01-11T06:43:33.180Z,5.30
2023-01-11T06:46:00.327Z,5.30
2023-01-11T06:48:28.035Z,5.30
2023-01-11T06:50:57.179Z,5.20
2023-01-11T06:53:28.321Z,5.30
2023-01-11T06:55:57.572Z,5.30
2023-01-11T06:58:26.168Z,5.30
2023-01-11T07:00:55.205Z,5.20
2023-01-11T07:03:24.443Z,5.30
2023-01-11T07:05:53.775Z,5.40
2023-01-11T07:08:20.977Z,5.20
2023-01-11T07:10:48.210Z,5.20
2023-01-11T07:13:17.378Z,5.40
2023-01-11T07:15:46.088Z,5.40
2023-01-11T07:18:13.045Z,5.30
2023-01-11T07:20:41.047Z,5.30
2023-01-11T07:34:37.830Z,5.50
2023-01-11T07:37:04.831Z,6.70
2023-01-11T07:39:42.780Z,6.60
2023-01-11T07:42:29.958Z,6.40
2023-01-11T07:44:56.914Z,6.40
2023-01-11T07:47:23.781Z,6.30
2023-01-11T07:49:50.595Z,6.10
2023-01-11T07:52:17.391Z,6.10
2023-01-11T07:54:44.161Z,6.20
2023-01-11T07:57:10.980Z,6.10
2023-01-11T07:59:38.004Z,6.20
2023-01-11T08:02:04.789Z,6.10
2023-01-11T08:04:31.562Z,6.30
2023-01-11T08:06:58.403Z,6.30
2023-01-11T08:09:25.175Z,6.30
2023-01-11T08:12:10.434Z,6.30
2023-01-11T08:14:40.356Z,6.20
2023-01-11T08:17:13.494Z,6.20
2023-01-11T08:19:40.924Z,6.30
2023-01-11T08:22:07.853Z,6.30
2023-01-11T08:24:37.410Z,6.40
2023-01-11T08:27:04.870Z,6.40
2023-01-11T08:29:32.465Z,6.50
2023-01-11T08:32:00.649Z,6.30
2023-01-11T08:34:29.184Z,6.50
2023-01-11T08:37:02.064Z,6.40
2023-01-11T08:39:32.243Z,6.50
2023-01-11T08:42:00.146Z,6.50
2023-01-11T08:44:33.975Z,6.60
2023-01-11T08:47:02.506Z,6.60
2023-01-11T08:49:30.592Z,6.60
2023-01-11T08:51:57.599Z,6.90
2023-01-11T08:54:25.165Z,6.80
2023-01-11T08:56:52.122Z,6.90
2023-01-11T08:59:20.117Z,7.00
2023-01-11T09:01:47.491Z,6.80
2023-01-11T09:04:24.204Z,7.00
2023-01-11T09:06:52.999Z,6.90
2023-01-11T09:09:20.076Z,7.00
2023-01-11T09:12:00.892Z,7.00
2023-01-11T09:14:28.773Z,7.00
2023-01-11T09:16:56.550Z,7.00
2023-01-11T09:19:23.415Z,7.10
2023-01-11T09:21:51.253Z,7.00
2023-01-11T09:24:18.133Z,7.20
2023-01-11T09:26:45.089Z,7.20
2023-01-11T09:29:12.313Z,7.00
2023-01-11T09:31:39.289Z,7.50
2023-01-11T09:34:07.170Z,7.30
2023-01-11T09:36:36.331Z,7.50
2023-01-11T09:39:08.385Z,7.60
2023-01-11T09:42:00.836Z,7.70
2023-01-11T09:44:29.833Z,7.60
2023-01-11T09:47:17.486Z,7.80
2023-01-11T09:49:50.967Z,7.70
2023-01-11T09:52:33.005Z,7.70
2023-01-11T09:55:01.436Z,7.70
2023-01-11T09:57:41.894Z,7.80
2023-01-11T10:00:12.220Z,7.90
2023-01-11T10:02:41.904Z,8.10
2023-01-11T10:05:51.393Z,8.10
2023-01-11T10:18:25.681Z,8.40
2023-01-11T10:18:39.624Z,8.50
2023-01-11T10:21:04.989Z,8.60
2023-01-11T10:23:42.139Z,8.60
2023-01-11T10:26:28.823Z,8.50
2023-01-11T10:29:20.765Z,8.50
2023-01-11T10:32:02.466Z,8.60
2023-01-11T10:35:10.630Z,8.70
2023-01-11T10:38:02.213Z,8.70
2023-01-11T10:41:04.458Z,8.80
2023-01-11T10:43:47.830Z,8.80
2023-01-11T10:46:19.143Z,8.90
2023-01-11T10:48:47.180Z,8.80
2023-01-11T10:51:24.668Z,8.90
2023-01-11T10:53:51.557Z,9.00
2023-01-11T10:56:33.063Z,8.90
2023-01-11T10:59:15.895Z,9.10
2023-01-11T11:02:06.086Z,9.10
2023-01-11T11:04:50.673Z,9.20
2023-01-11T11:07:23.028Z,9.20
2023-01-11T11:09:58.660Z,9.10
2023-01-11T11:12:28.584Z,9.20
2023-01-11T11:15:11.382Z,9.40
2023-01-11T11:17:41.847Z,9.50
2023-01-11T11:20:13.529Z,9.50
2023-01-11T11:22:40.552Z,9.60
2023-01-11T11:25:17.188Z,9.70
2023-01-11T11:27:51.217Z,9.70
2023-01-11T11:30:32.240Z,9.70
2023-01-11T11:33:05.699Z,9.70
2023-01-11T11:35:45.699Z,9.80
2023-01-11T11:38:39.951Z,9.80
2023-01-11T11:41:09.630Z,9.90
2023-01-11T11:43:41.901Z,9.90
2023-01-11T11:46:18.671Z,10.00
2023-01-11T11:49:18.341Z,10.00
2023-01-11T11:51:48.041Z,10.20
2023-01-11T11:54:39.040Z,10.20
2023-01-11T11:57:28.413Z,10.20
2023-01-11T12:00:23.308Z,10.30
2023-01-11T12:02:52.044Z,10.20
2023-01-11T12:05:19.084Z,10.20
2023-01-11T12:07:55.227Z,10.30
2023-01-11T12:10:25.448Z,10.40
2023-01-11T12:13:03.443Z,10.40
2023-01-11T12:15:34.672Z,10.60
2023-01-11T12:18:26.414Z,10.60
2023-01-11T12:20:53.663Z,10.60
2023-01-11T12:23:25.820Z,10.70
2023-01-11T12:26:14.892Z,10.80
2023-01-11T12:29:05.925Z,10.80
2023-01-11T12:31:55.934Z,10.90
2023-01-11T12:34:22.780Z,11.00
2023-01-11T12:37:02.159Z,11.00
2023-01-11T12:39:35.258Z,11.20
2023-01-11T12:42:02.006Z,11.20
2023-01-11T12:44:44.000Z,11.30
2023-01-11T12:47:41.694Z,11.40
2023-01-11T12:50:26.584Z,11.50
2023-01-11T12:53:11.900Z,11.60
2023-01-11T12:55:59.719Z,11.70
2023-01-11T12:58:51.143Z,11.70
2023-01-11T13:01:37.029Z,11.70
2023-01-11T13:04:12.970Z,11.70
2023-01-11T13:06:54.496Z,11.60
2023-01-11T13:09:40.136Z,11.60
2023-01-11T13:12:12.880Z,11.60
2023-01-11T13:15:07.036Z,11.60
2023-01-11T13:17:46.155Z,11.70
2023-01-11T13:20:58.668Z,11.80
2023-01-11T13:24:05.726Z,11.90
2023-01-11T13:26:36.991Z,12.00
2023-01-11T13:29:11.478Z,12.20
2023-01-11T13:31:40.816Z,12.20
2023-01-11T13:34:16.551Z,12.30
2023-01-11T13:36:48.772Z,12.30
2023-01-11T13:39:29.887Z,12.40
2023-01-11T13:42:00.575Z,12.30
2023-01-11T13:44:37.003Z,12.40
2023-01-11T13:47:11.622Z,12.50
2023-01-11T13:49:51.036Z,12.40
2023-01-11T13:52:37.875Z,12.40
2023-01-11T13:55:11.186Z,12.50
2023-01-11T13:57:55.812Z,12.40
2023-01-11T14:00:45.052Z,12.50
2023-01-11T14:03:19.147Z,12.60
2023-01-11T14:05:55.056Z,12.60
2023-01-11T14:08:51.913Z,12.50
2023-01-11T14:11:40.490Z,12.50
2023-01-11T14:14:20.203Z,12.70
2023-01-11T14:17:08.924Z,12.70
2023-01-11T14:20:04.655Z,12.70
2023-01-11T14:22:53.024Z,12.80
2023-01-11T14:25:29.335Z,12.80
2023-01-11T14:28:11.597Z,12.90
2023-01-11T14:31:01.712Z,12.80
2023-01-11T14:33:51.249Z,12.80
2023-01-11T14:36:36.183Z,12.70
2023-01-11T14:39:21.811Z,12.80
2023-01-11T14:41:54.160Z,12.70
2023-01-11T14:45:14.490Z,12.70
2023-01-11T14:48:05.516Z,12.60
2023-01-11T14:50:55.886Z,12.60
2023-01-11T14:53:28.000Z,12.50
2023-01-11T14:55:54.852Z,12.40
2023-01-11T14:58:25.917Z,12.30
2023-01-11T15:00:55.509Z,12.20
2023-01-11T15:03:22.348Z,12.40
2023-01-11T15:05:58.168Z,12.40
2023-01-11T15:08:42.941Z,12.30
2023-01-11T15:11:35.927Z,12.20
2023-01-11T15:14:32.743Z,12.20
2023-01-11T15:17:20.836Z,12.30
2023-01-11T15:19:49.495Z,12.10
2023-01-11T15:22:34.161Z,12.00
2023-01-11T15:25:04.125Z,12.00
2023-01-11T15:27:38.794Z,11.90
2023-01-11T15:30:08.213Z,11.90
2023-01-11T15:32:36.236Z,11.80
2023-01-11T15:35:24.792Z,11.80
2023-01-11T15:38:15.385Z,11.70
2023-01-11T15:40:46.446Z,11.70
2023-01-11T15:43:13.197Z,11.70
2023-01-11T15:46:14.514Z,11.60
2023-01-11T15:49:02.552Z,11.60
2023-01-11T15:52:01.267Z,11.50
2023-01-11T15:54:40.179Z,11.50
2023-01-11T15:57:54.288Z,11.50
2023-01-11T16:00:58.835Z,11.50
2023-01-11T16:03:50.389Z,11.50
2023-01-11T16:06:37.383Z,11.40
2023-01-11T16:09:16.627Z,11.40
2023-01-11T16:12:13.068Z,11.40
2023-01-11T16:14:46.252Z,11.40
2023-01-11T16:17:15.321Z,11.40
2023-01-11T16:19:45.362Z,11.40
2023-01-11T16:22:19.674Z,11.30
2023-01-11T16:24:51.004Z,11.30
2023-01-11T16:27:25.713Z,11.20
2023-01-11T16:29:53.150Z,11.30
2023-01-11T16:32:32.416Z,11.30
2023-01-11T16:35:01.717Z,11.30
2023-01-11T16:37:43.981Z,11.30
2023-01-11T16:40:11.012Z,11.40
2023-01-11T16:42:59.418Z,11.40
2023-01-11T16:45:40.322Z,11.30
2023-01-11T16:48:16.930Z,11.30
2023-01-11T16:50:58.715Z,11.30
2023-01-11T16:53:27.990Z,11.20
2023-01-11T16:56:07.761Z,11.30
2023-01-11T16:58:39.055Z,11.30
2023-01-11T17:01:06.988Z,11.30
2023-01-11T17:03:36.023Z,11.40
2023-01-11T17:06:15.319Z,11.30
2023-01-11T17:08:47.898Z,11.40
2023-01-11T17:11:23.820Z,11.30
2023-01-11T17:13:57.788Z,11.30
2023-01-11T17:16:46.819Z,11.30
2023-01-11T17:19:24.376Z,11.30
2023-01-11T17:21:54.497Z,11.40
2023-01-11T17:24:24.001Z,11.30
2023-01-11T17:26:53.880Z,11.30
2023-01-11T17:29:29.184Z,11.30
2023-01-11T17:31:59.202Z,11.30
2023-01-11T17:34:35.527Z,11.30
2023-01-11T17:37:10.368Z,11.30
2023-01-11T17:39:44.896Z,11.30
2023-01-11T17:42:33.129Z,11.40
2023-01-11T17:45:14.644Z,11.30
2023-01-11T17:48:15.554Z,11.40
2023-01-11T17:50:51.297Z,11.40
2023-01-11T17:53:35.915Z,11.30
2023-01-11T17:56:05.096Z,11.40
2023-01-11T17:58:39.042Z,11.40
2023-01-11T18:01:08.816Z,11.40
2023-01-11T18:03:43.044Z,11.30
2023-01-11T18:06:23.122Z,11.30
2023-01-11T18:08:52.988Z,11.30
2023-01-11T18:11:29.792Z,11.30
2023-01-11T18:14:02.820Z,11.40
2023-01-11T18:16:30.069Z,11.30
2023-01-11T18:18:57.557Z,11.30
2023-01-11T18:21:27.098Z,11.40
2023-01-11T18:24:09.559Z,11.30
2023-01-11T18:26:45.498Z,11.30
2023-01-11T18:29:37.261Z,11.40
2023-01-11T18:32:05.838Z,11.40
2023-01-11T18:34:32.768Z,11.30
2023-01-11T18:37:00.560Z,11.40
2023-01-11T18:39:27.439Z,11.30
2023-01-11T18:42:10.203Z,11.30
2023-01-11T18:44:39.209Z,11.40
2023-01-11T18:47:25.815Z,11.30
2023-01-11T18:49:53.490Z,11.30
2023-01-11T18:52:21.871Z,11.30
2023-01-11T18:54:48.776Z,11.30
2023-01-11T18:57:15.770Z,11.30
2023-01-11T18:59:43.607Z,11.30
2023-01-11T19:02:17.502Z,11.30
2023-01-11T19:04:45.108Z,11.30
2023-01-11T19:07:12.319Z,11.20
2023-01-11T19:09:39.586Z,11.20
2023-01-11T19:12:06.948Z,11.20
2023-01-11T19:14:34.098Z,11.20
2023-01-11T19:17:01.071Z,11.20
2023-01-11T19:19:27.925Z,11.20
2023-01-11T19:21:54.816Z,11.10
2023-01-11T19:24:21.766Z,11.10
2023-01-11T19:26:48.947Z,11.00
2023-01-11T19:29:17.940Z,11.00
2023-01-11T19:31:48.518Z,11.00
2023-01-11T19:34:16.268Z,11.00
2023-01-11T19:36:43.060Z,10.90
2023-01-11T19:39:10.197Z,10.90
2023-01-11T19:41:57.998Z,10.90
2023-01-11T19:44:35.919Z,10.90
2023-01-11T19:47:12.383Z,10.80
2023-01-11T19:49:40.948Z,10.80
2023-01-11T19:52:14.665Z,10.90
2023-01-11T19:54:43.092Z,10.90
2023-01-11T19:57:20.796Z,10.80
2023-01-11T19:59:49.617Z,10.80
2023-01-11T20:02:18.899Z,10.80
2023-01-11T20:04:45.769Z,10.80
2023-01-11T20:07:13.425Z,10.80
2023-01-11T20:09:40.474Z,10.80
2023-01-11T20:12:09.381Z,10.80
2023-01-11T20:14:36.566Z,10.90
2023-01-11T20:17:03.764Z,10.80
2023-01-11T20:19:30.804Z,10.80
2023-01-11T20:21:57.564Z,10.80
2023-01-11T20:24:33.691Z,10.80
2023-01-11T20:27:04.288Z,10.80
2023-01-11T20:29:31.625Z,10.90
2023-01-11T20:32:13.643Z,10.80
2023-01-11T20:34:45.624Z,10.80
2023-01-11T20:37:12.660Z,10.80
2023-01-11T20:39:39.392Z,10.70
2023-01-11T20:42:06.303Z,10.70
2023-01-11T20:44:33.580Z,10.80
2023-01-11T20:47:00.548Z,10.70
2023-01-11T20:49:29.304Z,10.70
2023-01-11T20:51:56.704Z,10.80
2023-01-11T20:54:24.517Z,10.70
2023-01-11T20:56:51.443Z,10.70
2023-01-11T20:59:20.156Z,10.80
2023-01-11T21:01:48.550Z,10.70
2023-01-11T21:04:23.020Z,10.70
2023-01-11T21:06:49.932Z,10.80
2023-01-11T21:09:18.070Z,10.80
2023-01-11T21:11:52.555Z,10.80
2023-01-11T21:14:20.280Z,10.80
2023-01-11T21:16:47.092Z,10.70
2023-01-11T21:19:15.339Z,10.80
2023-01-11T21:21:42.469Z,10.90
2023-01-11T21:24:12.817Z,10.90
2023-01-11T21:26:40.352Z,10.80
2023-01-11T21:29:07.369Z,10.90
2023-01-11T21:31:35.804Z,10.80
2023-01-11T21:34:03.497Z,10.80
2023-01-11T21:36:31.624Z,10.90
2023-01-11T21:38:59.651Z,10.90
2023-01-11T21:41:47.890Z,10.90
2023-01-11T21:44:15.587Z,10.90
2023-01-11T21:46:42.904Z,10.80
2023-01-11T21:49:10.491Z,10.80
2023-01-11T21:51:38.381Z,10.80
2023-01-11T21:54:07.748Z,10.80
2023-01-11T21:56:35.165Z,10.80
2023-01-11T21:59:02.383Z,10.80
2023-01-11T22:01:29.867Z,10.70
2023-01-11T22:03:57.393Z,10.80
2023-01-11T22:06:24.381Z,10.70
2023-01-11T22:08:51.289Z,10.80
2023-01-11T22:11:18.476Z,10.80
2023-01-11T22:13:45.270Z,10.80
2023-01-11T22:16:17.527Z,10.80
2023-01-11T22:18:45.225Z,10.80
2023-01-11T22:21:15.091Z,10.80
2023-01-11T22:23:42.118Z,10.90
2023-01-11T22:26:11.901Z,10.80
2023-01-11T22:28:58.081Z,10.80
2023-01-11T22:31:26.397Z,10.90
2023-01-11T22:33:53.856Z,10.80
2023-01-11T22:36:22.367Z,10.90
2023-01-11T22:38:49.467Z,10.90
2023-01-11T22:41:17.387Z,10.90
2023-01-11T22:43:45.087Z,10.80
2023-01-11T22:46:23.502Z,10.80
2023-01-11T22:48:51.101Z,10.90
2023-01-11T22:51:20.496Z,10.90
2023-01-11T22:53:48.929Z,11.00
2023-01-11T22:56:19.041Z,10.90
2023-01-11T22:58:46.936Z,11.00
2023-01-11T23:01:20.749Z,10.90
2023-01-11T23:03:48.374Z,11.00
2023-01-11T23:06:36.993Z,10.90
2023-01-11T23:09:05.288Z,10.90
2023-01-11T23:11:55.141Z,10.90
2023-01-11T23:14:22.654Z,10.90
2023-01-11T23:16:50.501Z,10.80
2023-01-11T23:19:18.602Z,10.90
2023-01-11T23:21:46.061Z,10.80
2023-01-11T23:24:14.278Z,10.90
2023-01-11T23:26:41.388Z,10.90
2023-01-11T23:29:08.685Z,10.80
2023-01-11T23:31:35.670Z,11.00
2023-01-11T23:34:03.511Z,10.80
2023-01-11T23:36:39.672Z,10.90
2023-01-11T23:39:08.648Z,10.80
2023-01-11T23:41:54.262Z,10.80
2023-01-11T23:44:22.385Z,10.80
2023-01-11T23:47:09.408Z,10.80
2023-01-11T23:49:36.716Z,10.80
2023-01-11T23:52:03.630Z,10.80
2023-01-11T23:54:32.427Z,10.90
2023-01-11T23:57:00.409Z,10.80
2023-01-11T23:59:27.284Z,10.80
